MLD101 LIPX-LUKK
Flight info
| Callsign | MLD101 |
|---|---|
| Flight time | N/A |
| Altitude | 31000 |
| Route | N0510F350 TUVDE Y922 KOPER AKADO BADOP BARPI ZARVE VANAX KOPRY BUDOP BUSES |
| Aircraft | T154/M-G/L |
Departure
| Time | 2026-04-27 06:10 |
|---|---|
| Airport | Verona Villafranca Valerio Catullo Airport (LIPX) |
Arrival
| Time | N/A |
|---|---|
| Airport | Chişinău International Airport (LUKK) |
| Time | Latitude | Longitude | Altitude | Speed | Heading |
|---|---|---|---|---|---|
| 2026-04-27 06:08 | 45.38782 | 10.87706 | 247 ft | 0 kts | 45° |
| 2026-04-27 06:09 | 45.38789 | 10.87717 | 247 ft | 0 kts | 44° |
| 2026-04-27 06:10 | 45.38827 | 10.87769 | 247 ft | 36 kts | 44° |
| 2026-04-27 06:10 | 45.39220 | 10.88333 | 247 ft | 123 kts | 47° |
| 2026-04-27 06:10 | 45.40015 | 10.89492 | 247 ft | 202 kts | 45° |
| 2026-04-27 06:10 | 45.41124 | 10.91034 | 968 ft | 235 kts | 44° |
| 2026-04-27 06:11 | 45.42300 | 10.92642 | 2440 ft | 234 kts | 44° |
| 2026-04-27 06:11 | 45.43448 | 10.94189 | 4242 ft | 219 kts | 43° |
| 2026-04-27 06:11 | 45.44460 | 10.95817 | 5572 ft | 231 kts | 54° |
| 2026-04-27 06:11 | 45.45201 | 10.98098 | 5782 ft | 275 kts | 67° |
| 2026-04-27 06:12 | 45.45815 | 11.00771 | 5285 ft | 290 kts | 71° |
| 2026-04-27 06:12 | 45.46320 | 11.03393 | 5770 ft | 256 kts | 73° |
| 2026-04-27 06:12 | 45.46777 | 11.05915 | 6314 ft | 270 kts | 74° |
| 2026-04-27 06:12 | 45.47243 | 11.08519 | 6789 ft | 277 kts | 75° |
| 2026-04-27 06:13 | 45.47720 | 11.11214 | 7271 ft | 282 kts | 75° |
| 2026-04-27 06:13 | 45.48204 | 11.13949 | 7750 ft | 286 kts | 75° |
| 2026-04-27 06:13 | 45.48696 | 11.16720 | 8304 ft | 291 kts | 75° |
| 2026-04-27 06:13 | 45.49189 | 11.19501 | 8699 ft | 291 kts | 75° |
| 2026-04-27 06:14 | 45.49687 | 11.22314 | 9186 ft | 294 kts | 75° |
| 2026-04-27 06:14 | 45.50188 | 11.25155 | 9664 ft | 296 kts | 75° |
| 2026-04-27 06:14 | 45.50693 | 11.28020 | 10141 ft | 299 kts | 75° |
| 2026-04-27 06:14 | 45.51205 | 11.30925 | 10622 ft | 304 kts | 75° |
| 2026-04-27 06:15 | 45.51725 | 11.33881 | 11101 ft | 310 kts | 75° |
| 2026-04-27 06:15 | 45.52253 | 11.36877 | 11579 ft | 314 kts | 75° |
| 2026-04-27 06:15 | 45.52788 | 11.39914 | 12057 ft | 317 kts | 75° |
| 2026-04-27 06:15 | 45.53321 | 11.42941 | 12529 ft | 320 kts | 75° |
| 2026-04-27 06:16 | 45.53866 | 11.46040 | 13007 ft | 323 kts | 75° |
| 2026-04-27 06:16 | 45.54414 | 11.49157 | 13484 ft | 325 kts | 75° |
| 2026-04-27 06:16 | 45.54967 | 11.52303 | 13961 ft | 328 kts | 75° |
| 2026-04-27 06:16 | 45.55518 | 11.55437 | 14433 ft | 330 kts | 75° |
| 2026-04-27 06:17 | 45.56079 | 11.58634 | 14911 ft | 332 kts | 75° |
| 2026-04-27 06:17 | 45.56643 | 11.61849 | 15389 ft | 335 kts | 75° |
| 2026-04-27 06:17 | 45.57211 | 11.65094 | 15867 ft | 337 kts | 75° |
| 2026-04-27 06:17 | 45.57783 | 11.68358 | 16344 ft | 339 kts | 75° |
| 2026-04-27 06:18 | 45.58358 | 11.71641 | 16821 ft | 342 kts | 75° |
| 2026-04-27 06:18 | 45.58930 | 11.74911 | 17293 ft | 344 kts | 75° |
| 2026-04-27 06:18 | 45.59513 | 11.78245 | 17770 ft | 347 kts | 75° |
| 2026-04-27 06:18 | 45.60100 | 11.81607 | 18248 ft | 349 kts | 75° |
| 2026-04-27 06:19 | 45.60690 | 11.84987 | 18726 ft | 352 kts | 75° |
| 2026-04-27 06:19 | 45.61282 | 11.88381 | 19201 ft | 354 kts | 75° |
| 2026-04-27 06:19 | 45.61873 | 11.91770 | 19673 ft | 357 kts | 75° |
| 2026-04-27 06:19 | 45.62475 | 11.95223 | 20150 ft | 359 kts | 75° |
| 2026-04-27 06:20 | 45.63074 | 11.98704 | 20614 ft | 362 kts | 75° |
| 2026-04-27 06:20 | 45.63660 | 12.02227 | 21068 ft | 365 kts | 76° |
| 2026-04-27 06:20 | 45.64240 | 12.05769 | 21519 ft | 367 kts | 76° |
| 2026-04-27 06:20 | 45.64822 | 12.09338 | 21959 ft | 370 kts | 76° |
| 2026-04-27 06:21 | 45.65406 | 12.12935 | 22387 ft | 373 kts | 76° |
| 2026-04-27 06:21 | 45.65993 | 12.16559 | 22814 ft | 375 kts | 76° |
| 2026-04-27 06:21 | 45.66585 | 12.20210 | 23236 ft | 377 kts | 76° |
| 2026-04-27 06:21 | 45.67180 | 12.23886 | 23642 ft | 380 kts | 76° |
| 2026-04-27 06:22 | 45.67777 | 12.27574 | 24044 ft | 382 kts | 76° |
| 2026-04-27 06:22 | 45.68371 | 12.31241 | 24440 ft | 384 kts | 76° |
| 2026-04-27 06:22 | 45.68975 | 12.34976 | 24827 ft | 387 kts | 76° |
| 2026-04-27 06:22 | 45.69585 | 12.38744 | 25206 ft | 389 kts | 76° |
| 2026-04-27 06:23 | 45.70197 | 12.42531 | 25584 ft | 392 kts | 76° |
| 2026-04-27 06:23 | 45.70813 | 12.46342 | 25959 ft | 394 kts | 76° |
| 2026-04-27 06:23 | 45.71434 | 12.50184 | 26321 ft | 396 kts | 76° |
| 2026-04-27 06:23 | 45.72050 | 12.53998 | 26670 ft | 399 kts | 76° |
| 2026-04-27 06:24 | 45.72678 | 12.57882 | 27022 ft | 401 kts | 76° |
| 2026-04-27 06:24 | 45.73306 | 12.61775 | 27373 ft | 403 kts | 76° |
| 2026-04-27 06:24 | 45.73941 | 12.65710 | 27716 ft | 405 kts | 76° |
| 2026-04-27 06:24 | 45.74577 | 12.69651 | 28045 ft | 407 kts | 76° |
| 2026-04-27 06:25 | 45.75216 | 12.73614 | 28372 ft | 409 kts | 76° |
| 2026-04-27 06:25 | 45.75861 | 12.77614 | 28700 ft | 411 kts | 76° |
| 2026-04-27 06:25 | 45.76505 | 12.81614 | 29026 ft | 413 kts | 76° |
| 2026-04-27 06:25 | 45.77152 | 12.85632 | 29338 ft | 415 kts | 76° |
| 2026-04-27 06:26 | 45.77795 | 12.89626 | 29637 ft | 418 kts | 76° |
| 2026-04-27 06:26 | 45.78451 | 12.93703 | 29940 ft | 420 kts | 76° |
| 2026-04-27 06:26 | 45.79109 | 12.97795 | 30241 ft | 421 kts | 76° |
| 2026-04-27 06:26 | 45.79769 | 13.01903 | 30543 ft | 423 kts | 76° |
| 2026-04-27 06:27 | 45.80424 | 13.05981 | 30834 ft | 425 kts | 76° |
| 2026-04-27 06:27 | 45.81090 | 13.10127 | 31115 ft | 427 kts | 76° |
| 2026-04-27 06:27 | 45.81760 | 13.14299 | 31392 ft | 429 kts | 76° |
| 2026-04-27 06:27 | 45.82432 | 13.18492 | 31669 ft | 431 kts | 76° |
| 2026-04-27 06:28 | 45.83105 | 13.22687 | 31945 ft | 433 kts | 76° |
| 2026-04-27 06:28 | 45.83782 | 13.26916 | 32221 ft | 435 kts | 76° |
| 2026-04-27 06:28 | 45.84460 | 13.31148 | 32490 ft | 436 kts | 76° |
| 2026-04-27 06:28 | 45.85141 | 13.35403 | 32745 ft | 438 kts | 76° |
| 2026-04-27 06:29 | 45.85816 | 13.39624 | 32994 ft | 440 kts | 76° |
| 2026-04-27 06:29 | 45.86501 | 13.43911 | 33245 ft | 441 kts | 76° |
| 2026-04-27 06:29 | 45.87176 | 13.48229 | 33496 ft | 443 kts | 77° |
| 2026-04-27 06:29 | 45.87833 | 13.52554 | 33747 ft | 445 kts | 77° |
| 2026-04-27 06:30 | 45.88484 | 13.56905 | 33998 ft | 446 kts | 77° |
| 2026-04-27 06:30 | 45.89132 | 13.61271 | 34239 ft | 448 kts | 77° |
| 2026-04-27 06:30 | 45.89782 | 13.65664 | 34469 ft | 450 kts | 77° |
| 2026-04-27 06:30 | 45.90423 | 13.70013 | 34692 ft | 452 kts | 77° |
| 2026-04-27 06:31 | 45.91076 | 13.74448 | 34872 ft | 455 kts | 77° |
| 2026-04-27 06:31 | 45.91510 | 13.77397 | 34945 ft | 457 kts | 77° |
| 2026-04-27 06:31 | 45.93057 | 13.87922 | 34999 ft | 463 kts | 77° |
| 2026-04-27 06:32 | 45.94387 | 13.96988 | 35000 ft | 462 kts | 77° |
| 2026-04-27 06:32 | 45.95704 | 14.05982 | 35000 ft | 461 kts | 77° |
| 2026-04-27 06:33 | 45.97022 | 14.15004 | 35000 ft | 460 kts | 77° |
| 2026-04-27 06:33 | 45.98330 | 14.23979 | 35000 ft | 460 kts | 77° |
| 2026-04-27 06:34 | 45.99643 | 14.32999 | 35000 ft | 460 kts | 77° |
| 2026-04-27 06:34 | 46.00952 | 14.42014 | 35000 ft | 460 kts | 77° |
| 2026-04-27 06:35 | 46.02259 | 14.51025 | 35000 ft | 460 kts | 77° |
| 2026-04-27 06:35 | 46.03557 | 14.59995 | 35000 ft | 460 kts | 77° |
| 2026-04-27 06:36 | 46.04861 | 14.69031 | 35000 ft | 460 kts | 77° |
| 2026-04-27 06:36 | 46.06156 | 14.78010 | 35000 ft | 460 kts | 77° |
| 2026-04-27 06:37 | 46.07454 | 14.87035 | 35000 ft | 460 kts | 77° |
| 2026-04-27 06:37 | 46.08753 | 14.96081 | 35000 ft | 460 kts | 77° |
| 2026-04-27 06:38 | 46.10047 | 15.05115 | 35000 ft | 460 kts | 77° |
| 2026-04-27 06:38 | 46.11331 | 15.14089 | 35000 ft | 460 kts | 78° |
| 2026-04-27 06:39 | 46.12608 | 15.23138 | 35000 ft | 460 kts | 78° |
| 2026-04-27 06:39 | 46.13823 | 15.32195 | 35000 ft | 460 kts | 78° |
| 2026-04-27 06:40 | 46.14821 | 15.39793 | 35000 ft | 460 kts | 78° |
| 2026-04-27 06:40 | 46.15996 | 15.48799 | 35000 ft | 460 kts | 79° |
| 2026-04-27 06:41 | 46.17177 | 15.57885 | 35000 ft | 460 kts | 79° |
| 2026-04-27 06:41 | 46.18356 | 15.66977 | 35000 ft | 460 kts | 79° |
| 2026-04-27 06:42 | 46.19523 | 15.76000 | 35000 ft | 460 kts | 79° |
| 2026-04-27 06:42 | 46.20696 | 15.85085 | 35000 ft | 460 kts | 79° |
| 2026-04-27 06:43 | 46.21867 | 15.94175 | 35000 ft | 460 kts | 79° |
| 2026-04-27 06:43 | 46.23032 | 16.03228 | 35000 ft | 460 kts | 79° |
| 2026-04-27 06:44 | 46.24200 | 16.12336 | 35000 ft | 460 kts | 79° |
| 2026-04-27 06:44 | 46.25360 | 16.21391 | 35000 ft | 460 kts | 79° |
| 2026-04-27 06:45 | 46.26523 | 16.30488 | 35000 ft | 460 kts | 79° |
| 2026-04-27 06:45 | 46.27686 | 16.39602 | 35000 ft | 460 kts | 79° |
| 2026-04-27 06:46 | 46.28837 | 16.48641 | 35000 ft | 460 kts | 79° |
| 2026-04-27 06:46 | 46.29996 | 16.57764 | 35000 ft | 460 kts | 79° |
| 2026-04-27 06:47 | 46.31145 | 16.66826 | 35000 ft | 460 kts | 79° |
| 2026-04-27 06:47 | 46.32298 | 16.75939 | 35000 ft | 460 kts | 79° |
| 2026-04-27 06:48 | 46.33449 | 16.85061 | 35000 ft | 460 kts | 79° |
| 2026-04-27 06:48 | 46.34598 | 16.94178 | 35000 ft | 460 kts | 79° |
| 2026-04-27 06:49 | 46.35712 | 17.03242 | 35000 ft | 460 kts | 79° |
| 2026-04-27 06:49 | 46.36776 | 17.12390 | 35000 ft | 460 kts | 80° |
| 2026-04-27 06:50 | 46.37821 | 17.21550 | 35000 ft | 460 kts | 80° |
| 2026-04-27 06:50 | 46.38854 | 17.30652 | 35000 ft | 460 kts | 80° |
| 2026-04-27 06:51 | 46.39889 | 17.39808 | 35000 ft | 460 kts | 80° |
| 2026-04-27 06:51 | 46.40920 | 17.48954 | 35000 ft | 460 kts | 80° |
| 2026-04-27 06:52 | 46.41951 | 17.58116 | 35000 ft | 460 kts | 80° |
| 2026-04-27 06:52 | 46.42979 | 17.67277 | 35000 ft | 460 kts | 80° |
| 2026-04-27 06:53 | 46.44001 | 17.76405 | 35000 ft | 460 kts | 80° |
| 2026-04-27 06:53 | 46.45027 | 17.85582 | 35000 ft | 460 kts | 80° |
| 2026-04-27 06:54 | 46.46050 | 17.94763 | 35000 ft | 460 kts | 80° |
| 2026-04-27 06:54 | 46.47064 | 18.03874 | 35000 ft | 460 kts | 80° |
| 2026-04-27 06:55 | 46.48083 | 18.13058 | 35000 ft | 460 kts | 80° |
| 2026-04-27 06:55 | 46.49098 | 18.22224 | 35000 ft | 460 kts | 80° |
| 2026-04-27 06:56 | 46.50111 | 18.31400 | 35000 ft | 460 kts | 80° |
| 2026-04-27 06:56 | 46.51123 | 18.40577 | 35000 ft | 460 kts | 80° |
| 2026-04-27 06:57 | 46.52132 | 18.49758 | 35000 ft | 460 kts | 80° |
| 2026-04-27 06:57 | 46.53140 | 18.58943 | 35000 ft | 460 kts | 80° |
| 2026-04-27 06:58 | 46.54640 | 18.72671 | 35000 ft | 460 kts | 81° |
| 2026-04-27 06:59 | 46.55584 | 18.81875 | 35000 ft | 460 kts | 81° |
| 2026-04-27 06:59 | 46.56486 | 18.91032 | 35000 ft | 460 kts | 81° |
| 2026-04-27 07:00 | 46.57383 | 19.00241 | 35000 ft | 460 kts | 81° |
| 2026-04-27 07:00 | 46.58277 | 19.09475 | 35000 ft | 460 kts | 81° |
| 2026-04-27 07:01 | 46.59169 | 19.18707 | 35000 ft | 460 kts | 82° |
| 2026-04-27 07:01 | 46.60052 | 19.27877 | 35000 ft | 460 kts | 82° |
| 2026-04-27 07:02 | 46.60938 | 19.37092 | 35000 ft | 460 kts | 82° |
| 2026-04-27 07:02 | 46.61823 | 19.46326 | 35000 ft | 460 kts | 82° |
| 2026-04-27 07:03 | 46.62706 | 19.55556 | 35000 ft | 460 kts | 82° |
| 2026-04-27 07:03 | 46.63581 | 19.64728 | 35000 ft | 460 kts | 82° |
| 2026-04-27 07:04 | 46.64462 | 19.73986 | 35000 ft | 460 kts | 82° |
| 2026-04-27 07:04 | 46.65338 | 19.83214 | 35000 ft | 460 kts | 82° |
| 2026-04-27 07:05 | 46.66213 | 19.92455 | 35000 ft | 460 kts | 82° |
| 2026-04-27 07:05 | 46.67081 | 20.01645 | 35000 ft | 460 kts | 82° |
| 2026-04-27 07:06 | 46.67951 | 20.10882 | 35000 ft | 460 kts | 82° |
| 2026-04-27 07:06 | 46.68816 | 20.20091 | 35000 ft | 460 kts | 82° |
| 2026-04-27 07:07 | 46.69682 | 20.29336 | 35000 ft | 460 kts | 82° |
| 2026-04-27 07:07 | 46.70540 | 20.38603 | 35000 ft | 460 kts | 82° |
| 2026-04-27 07:08 | 46.71333 | 20.47868 | 35000 ft | 460 kts | 83° |
| 2026-04-27 07:08 | 46.72094 | 20.57087 | 35000 ft | 460 kts | 83° |
| 2026-04-27 07:09 | 46.72850 | 20.66367 | 35000 ft | 460 kts | 83° |
| 2026-04-27 07:09 | 46.73603 | 20.75652 | 35000 ft | 460 kts | 83° |
| 2026-04-27 07:10 | 46.74364 | 20.84884 | 35000 ft | 460 kts | 82° |
| 2026-04-27 07:10 | 46.75150 | 20.94167 | 35000 ft | 460 kts | 83° |
| 2026-04-27 07:11 | 46.75940 | 21.03393 | 35000 ft | 460 kts | 82° |
| 2026-04-27 07:11 | 46.76719 | 21.12680 | 35000 ft | 460 kts | 83° |
| 2026-04-27 07:12 | 46.77372 | 21.21963 | 35000 ft | 460 kts | 84° |
| 2026-04-27 07:12 | 46.77932 | 21.31277 | 35000 ft | 460 kts | 85° |
| 2026-04-27 07:13 | 46.78468 | 21.40594 | 35000 ft | 460 kts | 85° |
| 2026-04-27 07:13 | 46.78946 | 21.49913 | 35000 ft | 460 kts | 85° |
| 2026-04-27 07:14 | 46.79378 | 21.59237 | 35000 ft | 460 kts | 86° |
| 2026-04-27 07:14 | 46.79797 | 21.68571 | 35000 ft | 460 kts | 86° |
| 2026-04-27 07:15 | 46.80210 | 21.77857 | 35000 ft | 460 kts | 86° |
| 2026-04-27 07:15 | 46.80623 | 21.87211 | 35000 ft | 460 kts | 86° |
| 2026-04-27 07:16 | 46.81030 | 21.96491 | 35000 ft | 460 kts | 86° |
| 2026-04-27 07:16 | 46.81438 | 22.05834 | 35000 ft | 460 kts | 86° |
| 2026-04-27 07:17 | 46.81842 | 22.15123 | 35000 ft | 460 kts | 86° |
| 2026-04-27 07:17 | 46.82246 | 22.24469 | 35000 ft | 460 kts | 86° |
| 2026-04-27 07:18 | 46.82647 | 22.33804 | 35000 ft | 460 kts | 86° |
| 2026-04-27 07:18 | 46.83048 | 22.43170 | 35000 ft | 460 kts | 86° |
| 2026-04-27 07:19 | 46.83443 | 22.52444 | 35000 ft | 460 kts | 86° |
| 2026-04-27 07:19 | 46.83838 | 22.61785 | 35000 ft | 460 kts | 86° |
| 2026-04-27 07:20 | 46.84233 | 22.71135 | 35000 ft | 460 kts | 86° |
| 2026-04-27 07:20 | 46.84625 | 22.80479 | 35000 ft | 460 kts | 86° |
| 2026-04-27 07:21 | 46.85013 | 22.89774 | 35000 ft | 460 kts | 86° |
| 2026-04-27 07:21 | 46.85401 | 22.99109 | 35000 ft | 460 kts | 86° |
| 2026-04-27 07:22 | 46.85787 | 23.08469 | 35000 ft | 460 kts | 86° |
| 2026-04-27 07:22 | 46.86162 | 23.17810 | 35000 ft | 460 kts | 86° |
| 2026-04-27 07:23 | 46.86470 | 23.27110 | 35000 ft | 460 kts | 87° |
| 2026-04-27 07:23 | 46.86754 | 23.36483 | 35000 ft | 460 kts | 87° |
| 2026-04-27 07:24 | 46.87029 | 23.45841 | 35000 ft | 460 kts | 87° |
| 2026-04-27 07:24 | 46.87300 | 23.55145 | 35000 ft | 460 kts | 87° |
| 2026-04-27 07:25 | 46.87569 | 23.64503 | 35000 ft | 460 kts | 87° |
| 2026-04-27 07:25 | 46.87835 | 23.73818 | 35000 ft | 460 kts | 87° |
| 2026-04-27 07:26 | 46.88102 | 23.83214 | 35000 ft | 460 kts | 87° |
| 2026-04-27 07:26 | 46.88365 | 23.92531 | 35000 ft | 460 kts | 87° |
| 2026-04-27 07:27 | 46.88626 | 24.01898 | 35000 ft | 460 kts | 87° |
| 2026-04-27 07:27 | 46.88843 | 24.09679 | 35000 ft | 460 kts | 88° |
| 2026-04-27 07:28 | 46.89101 | 24.19052 | 35000 ft | 460 kts | 88° |
| 2026-04-27 07:28 | 46.89356 | 24.28366 | 35000 ft | 460 kts | 88° |
| 2026-04-27 07:29 | 46.89611 | 24.37737 | 35000 ft | 460 kts | 88° |
| 2026-04-27 07:29 | 46.89864 | 24.47113 | 35000 ft | 460 kts | 88° |
| 2026-04-27 07:30 | 46.90115 | 24.56483 | 35000 ft | 460 kts | 88° |
| 2026-04-27 07:30 | 46.90362 | 24.65803 | 35000 ft | 460 kts | 88° |
| 2026-04-27 07:31 | 46.90610 | 24.75179 | 35000 ft | 460 kts | 88° |
| 2026-04-27 07:31 | 46.90853 | 24.84533 | 35000 ft | 461 kts | 88° |